createdAt,value
2022-10-02T00:00:05.181Z,47.76
2022-10-02T00:02:42.798Z,47.39
2022-10-02T00:05:13.100Z,47.94
2022-10-02T00:07:52.131Z,48.55
2022-10-02T00:10:25.122Z,48.72
2022-10-02T00:13:00.235Z,48.37
2022-10-02T00:15:30.813Z,48.11
2022-10-02T00:18:07.382Z,48.67
2022-10-02T00:20:58.004Z,49.91
2022-10-02T00:23:41.510Z,50.54
2022-10-02T00:26:25.588Z,50.63
2022-10-02T00:29:10.214Z,51.21
2022-10-02T00:32:08.046Z,51.99
2022-10-02T00:34:49.604Z,52.28
2022-10-02T00:37:37.777Z,52.52
2022-10-02T00:40:41.735Z,52.32
2022-10-02T00:43:17.348Z,52.28
2022-10-02T00:45:46.602Z,52.20
2022-10-02T00:48:47.092Z,52.42
2022-10-02T00:51:31.698Z,52.66
2022-10-02T00:54:25.792Z,52.46
2022-10-02T00:57:15.412Z,52.11
2022-10-02T01:00:00.067Z,51.57
2022-10-02T01:02:26.630Z,51.10
2022-10-02T01:04:54.430Z,50.67
2022-10-02T01:07:21.693Z,50.45
2022-10-02T01:09:48.512Z,50.58
2022-10-02T01:12:15.154Z,50.27
2022-10-02T01:14:42.259Z,49.81
2022-10-02T01:17:28.162Z,49.67
2022-10-02T01:19:55.856Z,49.55
2022-10-02T01:22:22.343Z,49.11
2022-10-02T01:24:52.824Z,49.21
2022-10-02T01:27:19.631Z,48.79
2022-10-02T01:29:51.574Z,48.81
2022-10-02T01:32:18.483Z,48.54
2022-10-02T01:34:48.641Z,48.28
2022-10-02T01:37:15.253Z,48.48
2022-10-02T01:39:41.919Z,48.10
2022-10-02T01:42:08.496Z,48.16
2022-10-02T01:44:35.241Z,47.95
2022-10-02T01:47:07.772Z,47.93
2022-10-02T01:49:52.964Z,48.02
2022-10-02T01:52:41.093Z,47.63
2022-10-02T01:55:35.217Z,47.52
2022-10-02T01:58:28.435Z,47.34
2022-10-02T02:01:16.608Z,47.29
2022-10-02T02:04:10.903Z,47.39
2022-10-02T02:06:57.182Z,47.26
2022-10-02T02:09:39.478Z,47.56
2022-10-02T02:12:14.509Z,47.13
2022-10-02T02:14:51.283Z,47.39
2022-10-02T02:17:17.797Z,47.07
2022-10-02T02:19:50.640Z,46.96
2022-10-02T02:22:29.889Z,46.81
2022-10-02T02:25:19.912Z,46.96
2022-10-02T02:27:53.137Z,46.79
2022-10-02T02:30:21.696Z,46.62
2022-10-02T02:32:53.323Z,46.92
2022-10-02T02:35:33.735Z,46.62
2022-10-02T02:38:08.212Z,46.61
2022-10-02T02:40:39.395Z,46.74
2022-10-02T02:43:13.204Z,46.68
2022-10-02T02:45:48.062Z,46.40
2022-10-02T02:48:39.395Z,46.48
2022-10-02T02:51:13.436Z,46.74
2022-10-02T02:53:46.604Z,46.24
2022-10-02T02:56:16.439Z,46.29
2022-10-02T02:59:14.787Z,46.21
2022-10-02T03:01:42.510Z,46.44
2022-10-02T03:04:13.907Z,46.07
2022-10-02T03:06:44.813Z,46.08
2022-10-02T03:09:20.824Z,46.29
2022-10-02T03:12:12.248Z,46.35
2022-10-02T03:17:14.557Z,46.01
2022-10-02T03:19:47.973Z,46.22
2022-10-02T03:22:36.196Z,46.26
2022-10-02T03:25:07.959Z,46.05
2022-10-02T03:27:41.305Z,45.99
2022-10-02T03:30:13.455Z,46.17
2022-10-02T03:32:41.637Z,46.23
2022-10-02T03:35:13.079Z,46.06
2022-10-02T03:37:47.028Z,46.13
2022-10-02T03:40:13.612Z,45.80
2022-10-02T03:42:40.273Z,45.78
2022-10-02T03:45:07.731Z,45.92
2022-10-02T03:47:34.846Z,45.91
2022-10-02T03:50:01.430Z,45.93
2022-10-02T03:52:32.128Z,45.96
2022-10-02T03:55:04.679Z,45.94
2022-10-02T03:57:33.990Z,45.70
2022-10-02T04:00:12.920Z,45.91
2022-10-02T04:02:54.120Z,45.81
2022-10-02T04:05:29.187Z,45.73
2022-10-02T04:08:00.168Z,45.79
2022-10-02T04:10:39.333Z,45.68
2022-10-02T04:13:21.388Z,45.58
2022-10-02T04:15:50.635Z,45.71
2022-10-02T04:18:43.458Z,45.46
2022-10-02T04:21:23.893Z,45.50
2022-10-02T04:23:55.491Z,45.44
2022-10-02T04:26:29.713Z,45.42
2022-10-02T04:29:01.669Z,45.64
2022-10-02T04:31:28.541Z,45.35
2022-10-02T04:34:01.645Z,45.61
2022-10-02T04:36:53.396Z,45.26
2022-10-02T04:39:47.054Z,45.69
2022-10-02T04:42:38.091Z,45.34
2022-10-02T04:45:26.576Z,45.39
2022-10-02T04:48:24.252Z,45.61
2022-10-02T04:51:33.945Z,45.31
2022-10-02T04:54:06.312Z,45.48
2022-10-02T04:57:16.612Z,45.49
2022-10-02T05:00:08.216Z,45.52
2022-10-02T05:02:48.227Z,45.18
2022-10-02T05:07:48.244Z,45.54
2022-10-02T05:10:49.009Z,45.31
2022-10-02T05:13:18.300Z,45.21
2022-10-02T05:16:01.885Z,45.13
2022-10-02T05:18:59.031Z,45.39
2022-10-02T05:21:47.197Z,45.40
2022-10-02T05:24:38.024Z,45.12
2022-10-02T05:27:28.972Z,45.37
2022-10-02T05:30:07.628Z,45.07
2022-10-02T05:32:43.882Z,45.09
2022-10-02T05:35:58.129Z,45.01
2022-10-02T05:38:50.801Z,45.26
2022-10-02T05:41:50.076Z,45.11
2022-10-02T05:44:24.453Z,45.12
2022-10-02T05:47:10.684Z,45.07
2022-10-02T05:50:06.024Z,45.05
2022-10-02T05:52:37.177Z,45.02
2022-10-02T05:55:27.304Z,45.25
2022-10-02T05:58:28.959Z,44.98
2022-10-02T06:01:17.573Z,44.82
2022-10-02T06:03:57.583Z,45.13
2022-10-02T06:06:30.622Z,45.24
2022-10-02T06:09:19.957Z,45.24
2022-10-02T06:12:06.983Z,45.05
2022-10-02T06:15:07.463Z,44.97
2022-10-02T06:17:43.433Z,45.20
2022-10-02T06:20:24.596Z,44.87
2022-10-02T06:23:12.935Z,45.13
2022-10-02T06:26:01.283Z,44.87
2022-10-02T06:28:38.920Z,44.96
2022-10-02T06:31:15.865Z,45.07
2022-10-02T06:33:42.753Z,44.95
2022-10-02T06:36:09.310Z,44.93
2022-10-02T06:39:15.008Z,44.95
2022-10-02T06:41:57.571Z,44.87
2022-10-02T06:44:30.919Z,45.06
2022-10-02T06:47:16.433Z,44.83
2022-10-02T06:52:14.165Z,44.66
2022-10-02T06:55:00.075Z,44.73
2022-10-02T06:57:52.820Z,44.99
2022-10-02T07:00:21.849Z,44.93
2022-10-02T07:02:51.564Z,44.75
2022-10-02T07:05:30.421Z,44.76
2022-10-02T07:08:24.144Z,44.81
2022-10-02T07:11:24.934Z,44.64
2022-10-02T07:14:10.310Z,44.54
2022-10-02T07:16:38.818Z,44.92
2022-10-02T07:19:33.103Z,44.49
2022-10-02T07:22:42.989Z,44.64
2022-10-02T07:25:32.150Z,44.73
2022-10-02T07:28:34.052Z,44.43
2022-10-02T07:31:10.600Z,44.79
2022-10-02T07:33:55.992Z,44.54
2022-10-02T07:36:48.586Z,44.44
2022-10-02T07:39:25.769Z,44.70
2022-10-02T07:41:58.106Z,44.53
2022-10-02T07:44:30.640Z,44.41
2022-10-02T07:47:24.899Z,44.36
2022-10-02T07:50:05.791Z,44.41
2022-10-02T07:53:01.995Z,44.35
2022-10-02T07:55:28.755Z,44.59
2022-10-02T07:58:17.272Z,44.65
2022-10-02T08:00:48.988Z,44.54
2022-10-02T08:03:22.711Z,44.23
2022-10-02T08:05:53.591Z,44.50
2022-10-02T08:08:38.695Z,44.12
2022-10-02T08:11:16.587Z,44.37
2022-10-02T08:13:45.952Z,44.40
2022-10-02T08:16:16.188Z,44.51
2022-10-02T08:19:18.481Z,44.26
2022-10-02T08:21:50.943Z,44.35
2022-10-02T08:24:24.065Z,44.43
2022-10-02T08:27:09.330Z,44.36
2022-10-02T08:29:56.145Z,44.26
2022-10-02T08:32:34.788Z,44.28
2022-10-02T08:35:05.781Z,44.34
2022-10-02T08:37:46.697Z,42.99
2022-10-02T08:40:42.403Z,42.66
2022-10-02T08:43:17.910Z,42.03
2022-10-02T08:46:09.287Z,41.52
2022-10-02T08:48:39.667Z,41.58
2022-10-02T08:51:44.585Z,41.43
2022-10-02T08:54:26.035Z,41.41
2022-10-02T08:57:17.168Z,41.43
2022-10-02T09:00:22.961Z,41.24
2022-10-02T09:03:26.008Z,41.37
2022-10-02T09:06:30.532Z,41.51
2022-10-02T09:09:15.385Z,41.33
2022-10-02T09:11:44.881Z,40.94
2022-10-02T09:14:39.659Z,41.09
2022-10-02T09:17:30.711Z,41.03
2022-10-02T09:20:16.264Z,40.85
2022-10-02T09:23:00.874Z,41.03
2022-10-02T09:25:33.172Z,40.91
2022-10-02T09:28:24.582Z,40.86
2022-10-02T09:31:30.593Z,40.54
2022-10-02T09:34:09.284Z,40.79
2022-10-02T09:37:00.135Z,42.43
2022-10-02T09:39:51.723Z,43.42
2022-10-02T09:42:52.157Z,44.22
2022-10-02T09:45:45.830Z,44.82
2022-10-02T09:48:45.297Z,45.37
2022-10-02T09:51:14.774Z,45.13
2022-10-02T09:54:39.193Z,45.00
2022-10-02T09:57:28.153Z,45.21
2022-10-02T09:59:54.680Z,44.98
2022-10-02T10:02:45.345Z,45.00
2022-10-02T10:05:21.876Z,44.72
2022-10-02T10:07:48.409Z,44.94
2022-10-02T10:10:39.261Z,44.84
2022-10-02T10:13:49.701Z,44.50
2022-10-02T10:16:30.295Z,44.53
2022-10-02T10:19:38.545Z,44.54
2022-10-02T10:22:32.354Z,44.50
2022-10-02T10:25:01.623Z,44.31
2022-10-02T10:27:55.951Z,44.37
2022-10-02T10:30:34.788Z,44.35
2022-10-02T10:33:34.760Z,44.14
2022-10-02T10:36:45.961Z,44.06
2022-10-02T10:39:36.242Z,44.00
2022-10-02T10:42:50.168Z,44.20
2022-10-02T10:45:44.016Z,44.04
2022-10-02T10:48:49.167Z,44.09
2022-10-02T10:51:53.503Z,44.06
2022-10-02T10:55:08.679Z,43.93
2022-10-02T10:57:55.720Z,43.97
2022-10-02T11:00:30.800Z,44.01
2022-10-02T11:03:27.957Z,44.00
2022-10-02T11:05:57.368Z,44.00
2022-10-02T11:08:55.526Z,43.80
2022-10-02T11:11:33.764Z,44.01
2022-10-02T11:14:36.404Z,44.09
2022-10-02T11:17:24.839Z,44.22
2022-10-02T11:20:03.356Z,44.41
2022-10-02T11:23:08.364Z,44.63
2022-10-02T11:26:06.138Z,44.82
2022-10-02T11:29:03.773Z,44.69
2022-10-02T11:31:46.981Z,44.87
2022-10-02T11:34:49.060Z,45.00
2022-10-02T11:37:37.956Z,45.25
2022-10-02T11:40:30.013Z,44.99
2022-10-02T11:43:28.263Z,45.29
2022-10-02T11:46:12.928Z,45.32
2022-10-02T11:49:07.824Z,45.45
2022-10-02T11:51:51.228Z,45.17
2022-10-02T11:54:33.163Z,45.15
2022-10-02T11:57:29.156Z,45.00
2022-10-02T12:00:13.356Z,44.98
2022-10-02T12:03:01.622Z,44.88
2022-10-02T12:05:45.964Z,44.82
2022-10-02T12:08:16.126Z,45.04
2022-10-02T12:11:06.548Z,44.85
2022-10-02T12:13:47.061Z,44.63
2022-10-02T12:16:32.698Z,44.64
2022-10-02T12:19:11.545Z,44.55
2022-10-02T12:22:16.343Z,44.58
2022-10-02T12:25:11.005Z,44.59
2022-10-02T12:27:51.872Z,44.40
2022-10-02T12:30:42.032Z,44.60
2022-10-02T12:33:21.915Z,44.67
2022-10-02T12:36:20.751Z,44.43
2022-10-02T12:39:11.741Z,44.42
2022-10-02T12:41:59.587Z,44.56
2022-10-02T12:45:11.722Z,44.29
2022-10-02T12:47:50.725Z,44.28
2022-10-02T12:50:46.365Z,44.39
2022-10-02T12:53:25.353Z,44.22
2022-10-02T12:56:33.545Z,44.31
2022-10-02T12:59:30.904Z,44.37
2022-10-02T13:02:18.562Z,44.27
2022-10-02T13:04:50.829Z,44.27
2022-10-02T13:07:55.950Z,44.31
2022-10-02T13:10:26.163Z,44.04
2022-10-02T13:13:09.892Z,44.08
2022-10-02T13:15:53.796Z,44.11
2022-10-02T13:18:43.914Z,44.08
2022-10-02T13:21:23.792Z,44.23
2022-10-02T13:26:22.334Z,44.35
2022-10-02T13:29:26.408Z,44.75
2022-10-02T13:32:18.420Z,44.90
2022-10-02T13:35:05.080Z,45.33
2022-10-02T13:37:58.589Z,45.37
2022-10-02T13:40:50.117Z,45.71
2022-10-02T13:43:58.712Z,46.17
2022-10-02T13:46:45.046Z,46.68
2022-10-02T13:49:20.805Z,46.50
2022-10-02T13:52:07.148Z,46.48
2022-10-02T13:54:50.801Z,46.21
2022-10-02T13:57:39.211Z,46.11
2022-10-02T14:00:23.826Z,46.41
2022-10-02T14:03:06.553Z,46.78
2022-10-02T14:05:57.692Z,46.97
2022-10-02T14:09:11.603Z,47.13
2022-10-02T14:12:03.916Z,47.19
2022-10-02T14:14:43.987Z,47.17
2022-10-02T14:17:46.849Z,47.11
2022-10-02T14:20:19.003Z,47.21
2022-10-02T14:23:15.554Z,47.17
2022-10-02T14:26:05.872Z,47.23
2022-10-02T14:29:08.691Z,47.24
2022-10-02T14:31:50.757Z,46.89
2022-10-02T14:34:38.729Z,46.70
2022-10-02T14:37:23.723Z,46.22
2022-10-02T14:39:50.733Z,44.97
2022-10-02T14:43:00.760Z,44.38
2022-10-02T14:45:36.279Z,44.05
2022-10-02T14:48:27.030Z,44.25
2022-10-02T14:51:11.614Z,44.26
2022-10-02T14:53:59.082Z,44.42
2022-10-02T14:56:47.173Z,44.42
2022-10-02T14:59:46.295Z,44.44
2022-10-02T15:02:55.942Z,44.49
2022-10-02T15:05:59.349Z,44.30
2022-10-02T15:08:36.745Z,44.47
2022-10-02T15:11:07.358Z,44.35
2022-10-02T15:13:49.003Z,44.28
2022-10-02T15:16:39.125Z,44.39
2022-10-02T15:19:12.539Z,44.34
2022-10-02T15:21:58.057Z,44.48
2022-10-02T15:24:29.549Z,44.39
2022-10-02T15:27:11.398Z,44.52
2022-10-02T15:29:58.500Z,44.58
2022-10-02T15:32:34.583Z,44.71
2022-10-02T15:35:07.206Z,44.78
2022-10-02T15:38:01.806Z,44.82
2022-10-02T15:40:33.753Z,45.01
2022-10-02T15:43:15.631Z,45.30
2022-10-02T15:46:24.141Z,45.33
2022-10-02T15:48:58.501Z,45.37
2022-10-02T15:51:55.536Z,45.65
2022-10-02T15:54:44.336Z,45.66
2022-10-02T15:57:32.143Z,45.66
2022-10-02T16:00:08.084Z,45.82
2022-10-02T16:02:56.777Z,45.93
2022-10-02T16:05:29.249Z,45.80
2022-10-02T16:08:15.790Z,45.99
2022-10-02T16:10:57.071Z,46.04
2022-10-02T16:13:40.502Z,46.10
2022-10-02T16:16:34.885Z,46.09
2022-10-02T16:19:04.565Z,46.34
2022-10-02T16:21:46.326Z,46.18
2022-10-02T16:24:24.275Z,46.12
2022-10-02T16:27:32.450Z,46.09
2022-10-02T16:30:11.802Z,46.18
2022-10-02T16:33:03.222Z,46.43
2022-10-02T16:35:42.840Z,46.43
2022-10-02T16:38:13.928Z,46.55
2022-10-02T16:40:57.075Z,46.45
2022-10-02T16:43:43.163Z,46.25
2022-10-02T16:46:22.189Z,46.46
2022-10-02T16:49:11.199Z,46.50
2022-10-02T16:52:02.924Z,46.43
2022-10-02T16:54:53.585Z,46.28
2022-10-02T16:57:38.901Z,46.33
2022-10-02T17:00:49.441Z,46.27
2022-10-02T17:03:30.323Z,46.29
2022-10-02T17:06:26.609Z,46.26
2022-10-02T17:09:05.942Z,46.50
2022-10-02T17:11:51.325Z,46.44
2022-10-02T17:14:31.088Z,46.44
2022-10-02T17:19:47.587Z,46.45
2022-10-02T17:22:42.131Z,46.29
2022-10-02T17:25:33.032Z,46.09
2022-10-02T17:28:19.296Z,46.30
2022-10-02T17:31:00.959Z,46.12
2022-10-02T17:33:44.956Z,46.19
2022-10-02T17:36:35.473Z,46.39
2022-10-02T17:39:36.569Z,46.27
2022-10-02T17:42:14.419Z,46.43
2022-10-02T17:44:45.125Z,46.70
2022-10-02T17:47:31.693Z,46.54
2022-10-02T17:50:26.402Z,46.83
2022-10-02T17:56:02.557Z,47.58
2022-10-02T17:59:10.892Z,47.87
2022-10-02T18:02:03.382Z,48.02
2022-10-02T18:04:39.085Z,48.14
2022-10-02T18:07:24.470Z,48.23
2022-10-02T18:10:03.663Z,48.34
2022-10-02T18:12:33.581Z,48.45
2022-10-02T18:15:18.706Z,48.38
2022-10-02T18:18:17.411Z,48.13
2022-10-02T18:21:12.880Z,48.07
2022-10-02T18:23:51.329Z,48.05
2022-10-02T18:26:29.787Z,47.66
2022-10-02T18:29:05.316Z,47.63
2022-10-02T18:31:54.657Z,47.54
2022-10-02T18:34:56.428Z,47.50
2022-10-02T18:37:54.521Z,47.31
2022-10-02T18:40:43.190Z,46.95
2022-10-02T18:43:29.838Z,46.95
2022-10-02T18:46:14.690Z,47.03
2022-10-02T18:51:25.380Z,46.81
2022-10-02T18:54:32.993Z,46.90
2022-10-02T18:57:08.920Z,47.03
2022-10-02T19:00:06.341Z,46.80
2022-10-02T19:02:41.652Z,46.50
2022-10-02T19:05:32.753Z,46.73
2022-10-02T19:08:21.616Z,46.57
2022-10-02T19:10:49.528Z,46.30
2022-10-02T19:13:25.760Z,46.24
2022-10-02T19:15:58.333Z,46.28
2022-10-02T19:18:28.051Z,46.33
2022-10-02T19:21:11.733Z,46.02
2022-10-02T19:24:01.491Z,46.23
2022-10-02T19:26:33.449Z,46.02
2022-10-02T19:29:08.216Z,45.95
2022-10-02T19:31:39.477Z,45.95
2022-10-02T19:34:15.568Z,45.87
2022-10-02T19:36:50.067Z,45.87
2022-10-02T19:39:26.403Z,45.91
2022-10-02T19:41:59.074Z,45.68
2022-10-02T19:44:43.496Z,45.69
2022-10-02T19:47:23.421Z,45.77
2022-10-02T19:49:52.504Z,45.94
2022-10-02T19:52:52.461Z,45.73
2022-10-02T19:55:34.086Z,45.62
2022-10-02T19:58:07.678Z,45.81
2022-10-02T20:00:38.737Z,45.72
2022-10-02T20:03:16.545Z,45.77
2022-10-02T20:05:48.338Z,45.57
2022-10-02T20:08:22.065Z,45.67
2022-10-02T20:11:00.989Z,45.51
2022-10-02T20:13:37.494Z,45.54
2022-10-02T20:16:35.511Z,45.60
2022-10-02T20:19:05.532Z,45.46
2022-10-02T20:22:01.404Z,45.61
2022-10-02T20:24:50.584Z,45.70
2022-10-02T20:27:29.947Z,45.39
2022-10-02T20:30:03.076Z,45.57
2022-10-02T20:32:55.810Z,45.58
2022-10-02T20:37:47.354Z,45.45
2022-10-02T20:40:22.036Z,45.72
2022-10-02T20:43:16.697Z,45.82
2022-10-02T20:45:53.079Z,45.67
2022-10-02T20:49:03.476Z,45.80
2022-10-02T20:51:54.051Z,45.86
2022-10-02T20:54:34.566Z,45.90
2022-10-02T20:57:04.169Z,45.68
2022-10-02T20:59:47.896Z,46.28
2022-10-02T21:02:29.582Z,46.41
2022-10-02T21:05:14.998Z,47.03
2022-10-02T21:08:18.763Z,47.23
2022-10-02T21:11:13.290Z,47.57
2022-10-02T21:14:00.129Z,47.63
2022-10-02T21:16:50.182Z,47.76
2022-10-02T21:19:48.914Z,48.01
2022-10-02T21:22:42.680Z,47.94
2022-10-02T21:25:27.840Z,47.92
2022-10-02T21:28:13.385Z,47.70
2022-10-02T21:31:21.473Z,47.85
2022-10-02T21:34:00.240Z,47.72
2022-10-02T21:36:36.390Z,47.75
2022-10-02T21:39:18.896Z,47.61
2022-10-02T21:42:17.587Z,47.68
2022-10-02T21:45:16.660Z,47.73
2022-10-02T21:48:17.276Z,47.44
2022-10-02T21:51:17.916Z,47.47
2022-10-02T21:54:31.944Z,47.47
2022-10-02T21:57:19.548Z,47.59
2022-10-02T22:00:23.593Z,47.59
2022-10-02T22:03:27.871Z,47.28
2022-10-02T22:06:25.813Z,47.33
2022-10-02T22:09:21.975Z,47.29
2022-10-02T22:12:04.932Z,47.12
2022-10-02T22:14:45.055Z,47.05
2022-10-02T22:17:18.564Z,46.90
2022-10-02T22:20:12.549Z,47.16
2022-10-02T22:22:45.092Z,46.89
2022-10-02T22:25:43.689Z,46.87
2022-10-02T22:28:16.193Z,46.98
2022-10-02T22:30:54.802Z,46.87
2022-10-02T22:33:31.780Z,46.87
2022-10-02T22:36:08.866Z,46.69
2022-10-02T22:38:54.677Z,46.71
2022-10-02T22:41:31.131Z,46.65
2022-10-02T22:44:09.070Z,46.61
2022-10-02T22:46:56.326Z,46.50
2022-10-02T22:49:41.790Z,46.25
2022-10-02T22:52:25.881Z,46.26
2022-10-02T22:54:57.877Z,46.14
2022-10-02T22:57:42.576Z,46.18
2022-10-02T23:00:23.183Z,46.13
2022-10-02T23:03:06.116Z,45.95
2022-10-02T23:05:46.612Z,46.10
2022-10-02T23:08:32.076Z,45.96
2022-10-02T23:11:14.748Z,45.86
2022-10-02T23:13:50.312Z,45.95
2022-10-02T23:16:26.438Z,45.69
2022-10-02T23:19:15.538Z,45.61
2022-10-02T23:21:52.104Z,45.58
2022-10-02T23:24:29.781Z,45.60
2022-10-02T23:27:02.349Z,45.39
2022-10-02T23:29:46.453Z,45.46
2022-10-02T23:32:36.355Z,45.23
2022-10-02T23:35:37.053Z,45.28
2022-10-02T23:38:30.835Z,45.21
2022-10-02T23:41:25.004Z,45.22
2022-10-02T23:43:59.779Z,45.32
2022-10-02T23:46:31.121Z,45.12
2022-10-02T23:48:58.989Z,45.04
2022-10-02T23:51:55.171Z,45.15
2022-10-02T23:54:34.886Z,44.93
2022-10-02T23:57:10.292Z,44.98
